Time;durP1;ratioP1;P1;durP2;ratioP2;P2;SDS_P1;SDS_P2;PMS_P1;PMS_P2;Temp;Humidity;BMP_temperature;BMP_pressure;BME280_temperature;BME280_humidity;BME280_pressure;Samples;Min_cycle;Max_cycle;Signal;HPM_P1;HPM_P2
2021/04/16 00:00:36;;;;;;;4.95;1.80;;;3.00;99.90;;;;;;5037314;28;20483;-85
2021/04/16 00:03:05;;;;;;;6.13;2.22;;;3.00;99.90;;;;;;5020191;28;20112;-85
2021/04/16 00:05:34;;;;;;;4.70;1.73;;;3.10;99.90;;;;;;5037762;28;20021;-85
2021/04/16 00:08:01;;;;;;;3.72;1.75;;;3.10;99.90;;;;;;5037862;28;20326;-85
2021/04/16 00:10:41;;;;;;;5.93;1.73;;;3.10;99.90;;;;;;5037868;28;20014;-85
2021/04/16 00:13:09;;;;;;;5.25;1.70;;;3.10;99.90;;;;;;5037746;28;20025;-86
2021/04/16 00:15:39;;;;;;;3.03;1.77;;;3.10;99.90;;;;;;5020367;28;20053;-85
2021/04/16 00:18:08;;;;;;;3.20;1.98;;;3.10;99.90;;;;;;5037978;28;20422;-85
2021/04/16 00:20:37;;;;;;;3.92;2.20;;;3.10;99.90;;;;;;5019683;28;20087;-85
2021/04/16 00:23:05;;;;;;;4.72;1.65;;;3.20;99.90;;;;;;5035446;28;20041;-85
2021/04/16 00:25:34;;;;;;;2.83;1.50;;;3.20;99.90;;;;;;5056926;28;20478;-85
2021/04/16 00:28:02;;;;;;;6.32;2.20;;;3.20;99.90;;;;;;5055627;28;20035;-86
2021/04/16 00:30:36;;;;;;;4.00;2.47;;;3.20;99.90;;;;;;5055597;28;20021;-86
2021/04/16 00:33:04;;;;;;;3.78;1.60;;;3.20;99.90;;;;;;5055573;28;20025;-85
2021/04/16 00:35:32;;;;;;;3.72;1.60;;;3.30;99.90;;;;;;5055666;28;20025;-86
2021/04/16 00:38:00;;;;;;;2.95;1.80;;;3.30;99.90;;;;;;5055628;28;20036;-86
2021/04/16 00:40:36;;;;;;;4.82;1.40;;;3.30;99.90;;;;;;5056580;28;20095;-86
2021/04/16 00:43:04;;;;;;;;;;;3.30;99.90;;;;;;5057817;28;20316;-85
2021/04/16 00:45:33;;;;;;;2.78;1.40;;;3.30;99.80;;;;;;5056600;28;20258;-85
2021/04/16 00:48:06;;;;;;;4.35;1.65;;;3.40;99.70;;;;;;5056749;28;20028;-85
2021/04/16 00:50:50;;;;;;;5.22;1.75;;;3.40;98.90;;;;;;5057492;28;20024;-85
2021/04/16 00:53:20;;;;;;;5.07;2.15;;;3.40;97.50;;;;;;5056257;28;20025;-85
2021/04/16 00:55:48;;;;;;;2.97;1.40;;;3.50;97.00;;;;;;5057804;28;20114;-85
2021/04/16 00:58:17;;;;;;;2.85;1.33;;;3.50;96.50;;;;;;5060567;28;20508;-85
2021/04/16 01:00:44;;;;;;;4.28;2.15;;;3.60;96.20;;;;;;5061070;28;20048;-85
2021/04/16 01:03:12;;;;;;;2.58;1.23;;;3.60;95.80;;;;;;5059364;28;20447;-86
2021/04/16 01:05:39;;;;;;;3.70;1.63;;;3.70;95.40;;;;;;5060259;28;20116;-85
2021/04/16 01:08:09;;;;;;;2.85;1.15;;;3.70;95.20;;;;;;5060124;28;20021;-85
2021/04/16 01:10:37;;;;;;;4.20;1.10;;;3.80;94.90;;;;;;5060320;28;20017;-85
2021/04/16 01:13:05;;;;;;;2.58;1.17;;;3.80;94.60;;;;;;5059140;28;20056;-86
2021/04/16 01:15:38;;;;;;;3.20;1.38;;;3.90;94.40;;;;;;5059074;28;20048;-85
2021/04/16 01:18:17;;;;;;;4.68;1.80;;;3.90;94.30;;;;;;5059897;28;20104;-86
2021/04/16 01:20:48;;;;;;;2.35;1.25;;;3.90;94.10;;;;;;5058985;28;20036;-86
2021/04/16 01:23:35;;;;;;;2.80;1.05;;;3.90;93.80;;;;;;5059617;28;20048;-85
2021/04/16 01:26:05;;;;;;;2.22;0.98;;;3.90;93.60;;;;;;5061119;28;20539;-86
2021/04/16 01:28:33;;;;;;;3.45;1.00;;;4.00;93.30;;;;;;5059961;28;20052;-85
2021/04/16 01:31:15;;;;;;;1.75;1.02;;;4.00;93.30;;;;;;5059705;28;20116;-85
2021/04/16 01:33:45;;;;;;;2.13;1.00;;;4.00;93.20;;;;;;5059686;28;20381;-86
2021/04/16 01:36:15;;;;;;;2.10;0.90;;;4.00;93.10;;;;;;5059569;28;20048;-86
2021/04/16 01:38:44;;;;;;;2.67;1.00;;;4.10;92.90;;;;;;5059798;28;20025;-86
2021/04/16 01:41:14;;;;;;;3.03;1.33;;;4.10;92.80;;;;;;5060088;28;20052;-86
2021/04/16 01:43:44;;;;;;;2.25;1.10;;;4.10;92.70;;;;;;5058489;28;20025;-86
2021/04/16 01:46:17;;;;;;;2.65;1.00;;;4.20;92.80;;;;;;5058513;28;20440;-85
2021/04/16 01:48:49;;;;;;;2.35;1.00;;;4.20;92.70;;;;;;5059990;28;20024;-85
2021/04/16 01:51:22;;;;;;;1.98;0.82;;;4.20;92.70;;;;;;5058391;28;20120;-86
2021/04/16 01:54:02;;;;;;;3.25;1.23;;;4.20;92.70;;;;;;5058339;28;20032;-85
2021/04/16 01:56:29;;;;;;;2.28;1.23;;;4.20;92.70;;;;;;5058388;28;20029;-86
2021/04/16 01:58:58;;;;;;;2.83;1.27;;;4.20;92.80;;;;;;5058653;28;20028;-86
2021/04/16 02:01:26;;;;;;;3.03;1.30;;;4.20;92.90;;;;;;5058126;28;20028;-85
2021/04/16 02:03:55;;;;;;;2.97;1.30;;;4.20;93.00;;;;;;5060006;28;20089;-85
2021/04/16 02:06:23;;;;;;;9.02;1.75;;;4.20;93.00;;;;;;5060179;28;20401;-85
2021/04/16 02:08:55;;;;;;;6.80;2.47;;;4.20;93.00;;;;;;5059653;28;20092;-85
2021/04/16 02:11:22;;;;;;;7.70;2.00;;;4.20;93.10;;;;;;5058922;28;20082;-86
2021/04/16 02:13:49;;;;;;;6.95;1.80;;;4.20;93.20;;;;;;5059617;28;20029;-85
2021/04/16 02:16:17;;;;;;;2.85;1.20;;;4.20;93.20;;;;;;5060122;28;20021;-85
2021/04/16 02:18:44;;;;;;;3.00;1.17;;;4.20;93.20;;;;;;5059887;28;20036;-85
2021/04/16 02:21:12;;;;;;;3.33;1.65;;;4.20;93.30;;;;;;5058575;28;20039;-86
2021/04/16 02:23:41;;;;;;;3.53;1.33;;;4.20;93.30;;;;;;5044504;28;20453;-85
2021/04/16 02:26:09;;;;;;;3.92;1.52;;;4.10;93.30;;;;;;5038768;28;20017;-85
2021/04/16 02:28:36;;;;;;;2.67;1.25;;;4.10;93.40;;;;;;5021360;28;20022;-86
2021/04/16 02:31:03;;;;;;;3.25;1.35;;;4.10;93.50;;;;;;5038771;28;20045;-85
2021/04/16 02:33:32;;;;;;;3.92;1.45;;;4.10;93.50;;;;;;5038992;28;20047;-84
2021/04/16 02:36:00;;;;;;;3.10;1.40;;;4.10;93.50;;;;;;5020956;28;20079;-85
2021/04/16 02:38:28;;;;;;;4.85;1.58;;;4.10;93.60;;;;;;5021148;28;20329;-86
2021/04/16 02:40:56;;;;;;;3.83;1.35;;;4.10;93.60;;;;;;5020981;28;20425;-85
2021/04/16 02:43:23;;;;;;;4.40;1.48;;;4.00;93.70;;;;;;5021738;28;20091;-85
2021/04/16 02:45:50;;;;;;;3.85;1.25;;;4.00;93.80;;;;;;5021747;28;20037;-85
2021/04/16 02:48:18;;;;;;;2.80;1.45;;;4.00;94.00;;;;;;5039399;28;20068;-85
2021/04/16 02:50:46;;;;;;;5.43;1.65;;;4.00;94.10;;;;;;5021699;28;20025;-85
2021/04/16 02:53:15;;;;;;;2.85;1.10;;;3.90;94.20;;;;;;5021657;28;20033;-85
2021/04/16 02:55:43;;;;;;;3.05;1.38;;;3.90;94.40;;;;;;5039423;28;20030;-85
2021/04/16 02:58:11;;;;;;;3.55;1.30;;;3.80;94.40;;;;;;5039138;28;20029;-85
2021/04/16 03:00:39;;;;;;;3.20;1.40;;;3.80;94.60;;;;;;5021568;28;20025;-85
2021/04/16 03:03:07;;;;;;;2.63;1.13;;;3.80;94.80;;;;;;5038282;28;20034;-85
2021/04/16 03:05:34;;;;;;;3.70;1.75;;;3.70;95.10;;;;;;5038188;28;20109;-85
2021/04/16 03:08:02;;;;;;;3.58;1.42;;;3.70;95.80;;;;;;5038278;28;20013;-85
2021/04/16 03:10:33;;;;;;;3.13;1.50;;;3.70;96.10;;;;;;5020460;28;20083;-85
2021/04/16 03:13:01;;;;;;;3.67;1.50;;;3.60;96.50;;;;;;5020494;28;20034;-85
2021/04/16 03:15:29;;;;;;;2.78;1.30;;;3.60;96.80;;;;;;5021442;28;20083;-85
2021/04/16 03:17:58;;;;;;;6.40;1.17;;;3.50;97.00;;;;;;5038374;28;20112;-85
2021/04/16 03:20:26;;;;;;;3.40;1.50;;;3.50;97.20;;;;;;5020158;28;20021;-84
2021/04/16 03:22:53;;;;;;;3.35;1.30;;;3.50;97.70;;;;;;5037631;28;20497;-84
2021/04/16 03:25:21;;;;;;;3.88;1.42;;;3.50;97.70;;;;;;5038887;28;20017;-85
2021/04/16 03:27:48;;;;;;;3.17;1.63;;;3.40;98.00;;;;;;5021057;28;20341;-84
2021/04/16 03:30:21;;;;;;;5.18;1.58;;;3.40;98.20;;;;;;5038779;28;20030;-85
2021/04/16 03:32:48;;;;;;;3.25;1.38;;;3.40;98.40;;;;;;5021031;28;20026;-85
2021/04/16 03:35:16;;;;;;;4.18;1.58;;;3.40;98.70;;;;;;5020909;28;20067;-85
2021/04/16 03:37:44;;;;;;;3.85;1.30;;;3.40;98.90;;;;;;5020936;28;20033;-85
2021/04/16 03:40:15;;;;;;;4.25;1.42;;;3.40;99.20;;;;;;5038716;28;20100;-86
2021/04/16 03:42:43;;;;;;;4.20;1.70;;;3.30;99.60;;;;;;5020717;28;20310;-85
2021/04/16 03:45:14;;;;;;;3.80;1.95;;;3.30;99.90;;;;;;5019901;28;20017;-85
2021/04/16 03:47:47;;;;;;;2.72;1.30;;;3.30;99.90;;;;;;5019949;28;20108;-88
2021/04/16 03:50:18;;;;;;;2.78;1.40;;;3.30;99.90;;;;;;5019993;28;20433;-88
2021/04/16 03:52:46;;;;;;;3.15;1.50;;;3.30;99.90;;;;;;5019824;28;20029;-88
2021/04/16 03:55:15;;;;;;;2.70;1.30;;;3.30;99.90;;;;;;5019871;28;20083;-88
2021/04/16 03:57:43;;;;;;;2.67;1.40;;;3.30;99.90;;;;;;5037595;28;20033;-88
2021/04/16 04:00:13;;;;;;;3.40;2.13;;;3.30;99.90;;;;;;5019911;28;20017;-88
2021/04/16 04:02:41;;;;;;;3.92;1.48;;;3.30;99.90;;;;;;5019586;28;20139;-87
2021/04/16 04:05:09;;;;;;;3.10;1.50;;;3.30;99.90;;;;;;5020720;28;20060;-87
2021/04/16 04:07:36;;;;;;;5.05;1.52;;;3.30;99.90;;;;;;5021275;28;20025;-88
2021/04/16 04:10:05;;;;;;;3.25;1.50;;;3.20;99.90;;;;;;5020734;28;20022;-88
2021/04/16 04:12:33;;;;;;;3.83;1.42;;;3.20;99.90;;;;;;5020470;28;20032;-88
2021/04/16 04:15:01;;;;;;;5.28;1.50;;;3.20;99.90;;;;;;5020451;28;20325;-87
2021/04/16 04:17:35;;;;;;;7.50;1.75;;;3.10;99.90;;;;;;5037883;28;20018;-88
2021/04/16 04:20:05;;;;;;;3.17;1.30;;;3.10;99.90;;;;;;5037951;28;20018;-87
2021/04/16 04:22:33;;;;;;;2.70;1.38;;;3.10;99.90;;;;;;5037269;28;20045;-87
2021/04/16 04:25:02;;;;;;;2.83;1.60;;;3.10;99.90;;;;;;5019475;28;20083;-88
2021/04/16 04:27:30;;;;;;;2.63;1.40;;;3.10;99.90;;;;;;5019388;28;20374;-87
2021/04/16 04:29:58;;;;;;;4.35;2.42;;;3.10;99.90;;;;;;5019128;28;20026;-88
2021/04/16 04:32:26;;;;;;;4.30;1.85;;;3.10;99.90;;;;;;5036965;28;20049;-88
2021/04/16 04:34:54;;;;;;;2.38;1.38;;;3.10;99.90;;;;;;5036923;28;20030;-88
2021/04/16 04:37:22;;;;;;;3.10;1.48;;;3.10;99.90;;;;;;5036712;28;20034;-88
2021/04/16 04:39:50;;;;;;;2.88;1.65;;;3.00;99.90;;;;;;5019213;28;20026;-88
2021/04/16 04:42:17;;;;;;;2.97;1.50;;;3.00;99.90;;;;;;5037004;28;20029;-87
2021/04/16 04:44:45;;;;;;;5.18;1.77;;;3.00;99.90;;;;;;5037063;28;20021;-87
2021/04/16 04:47:13;;;;;;;9.27;1.90;;;3.00;99.90;;;;;;5037943;28;20026;-87
2021/04/16 04:49:40;;;;;;;9.93;2.13;;;2.90;99.90;;;;;;5020146;28;20108;-87
2021/04/16 04:52:20;;;;;;;6.57;1.58;;;2.90;99.90;;;;;;5020279;28;20028;-88
2021/04/16 04:54:53;;;;;;;4.35;2.00;;;2.90;99.90;;;;;;5020589;28;20112;-88
2021/04/16 04:57:22;;;;;;;3.70;1.40;;;2.90;99.90;;;;;;5020126;28;20026;-88
2021/04/16 04:59:50;;;;;;;6.90;3.45;;;2.90;99.90;;;;;;5020018;28;20021;-88
2021/04/16 05:02:20;;;;;;;3.05;1.65;;;3.00;99.90;;;;;;5037037;28;20021;-88
2021/04/16 05:04:48;;;;;;;6.78;2.17;;;3.10;99.90;;;;;;5019082;28;20040;-88
2021/04/16 05:07:16;;;;;;;3.03;1.55;;;3.10;99.90;;;;;;5019090;28;20017;-78
2021/04/16 05:09:44;;;;;;;3.08;1.55;;;3.20;99.70;;;;;;5019132;28;20056;-92
2021/04/16 05:12:12;;;;;;;3.75;1.60;;;3.30;99.40;;;;;;5020107;28;20022;-92
2021/04/16 05:14:41;;;;;;;5.57;3.17;;;3.40;99.00;;;;;;5019179;28;20030;-92
2021/04/16 05:17:09;;;;;;;4.47;2.65;;;3.50;98.90;;;;;;5018955;28;20327;-91
2021/04/16 05:19:37;;;;;;;5.97;2.30;;;3.50;98.90;;;;;;5018965;28;20087;-91
2021/04/16 05:22:06;;;;;;;6.13;2.65;;;3.60;98.80;;;;;;5019050;28;20365;-91
2021/04/16 05:24:35;;;;;;;3.45;1.40;;;3.60;98.50;;;;;;5019470;28;20083;-92
2021/04/16 05:27:06;;;;;;;3.10;1.55;;;3.70;98.40;;;;;;5020147;28;20026;-92
2021/04/16 05:29:34;;;;;;;4.07;1.75;;;3.70;98.10;;;;;;5019973;28;20026;-91
2021/04/16 05:32:03;;;;;;;3.92;1.73;;;3.80;97.90;;;;;;5019757;28;20022;-91
2021/04/16 05:34:31;;;;;;;4.65;1.73;;;3.80;97.70;;;;;;5019647;28;20021;-91
2021/04/16 05:36:59;;;;;;;4.22;1.50;;;3.90;97.70;;;;;;5019638;28;20091;-92
2021/04/16 05:39:27;;;;;;;7.28;2.42;;;4.00;97.70;;;;;;5019661;28;20124;-91
2021/04/16 05:41:55;;;;;;;5.70;2.55;;;4.00;97.70;;;;;;5037777;28;20028;-91
2021/04/16 05:44:23;;;;;;;7.15;2.10;;;4.10;97.80;;;;;;5022972;28;20025;-90
2021/04/16 05:46:50;;;;;;;4.47;2.38;;;4.10;97.70;;;;;;5022375;28;20026;-90
2021/04/16 05:49:19;;;;;;;6.43;3.03;;;4.20;97.70;;;;;;5022115;28;20088;-83
2021/04/16 05:51:46;;;;;;;4.07;2.67;;;4.30;97.60;;;;;;5039286;28;20029;-85
2021/04/16 05:54:14;;;;;;;5.72;2.60;;;4.30;97.40;;;;;;5021754;28;20022;-84
2021/04/16 05:56:42;;;;;;;5.28;2.67;;;4.40;97.20;;;;;;5039364;28;20433;-84
2021/04/16 05:59:09;;;;;;;8.18;2.30;;;4.40;96.90;;;;;;5022101;28;20057;-85
2021/04/16 06:01:37;;;;;;;4.63;2.50;;;4.50;96.10;;;;;;5021776;28;20037;-81
2021/04/16 06:04:05;;;;;;;9.65;3.20;;;4.50;95.80;;;;;;5022119;28;20049;-91
2021/04/16 06:06:32;;;;;;;7.60;2.50;;;4.60;94.70;;;;;;5039640;28;20026;-88
2021/04/16 06:08:59;;;;;;;5.05;2.05;;;4.60;94.60;;;;;;5040049;28;20026;-83
2021/04/16 06:11:29;;;;;;;7.78;2.60;;;4.70;94.40;;;;;;5040229;28;20013;-90
2021/04/16 06:13:56;;;;;;;4.28;2.47;;;4.70;94.20;;;;;;5022917;28;20029;-83
2021/04/16 06:16:23;;;;;;;9.48;2.58;;;4.70;94.00;;;;;;5022591;28;20112;-89
2021/04/16 06:18:51;;;;;;;3.65;2.53;;;4.80;93.90;;;;;;5022273;28;20029;-86
2021/04/16 06:21:18;;;;;;;6.32;1.80;;;4.80;93.90;;;;;;5022283;28;20033;-81
2021/04/16 06:23:46;;;;;;;7.07;2.45;;;4.90;93.60;;;;;;5039977;28;20102;-87
2021/04/16 06:26:14;;;;;;;3.50;1.92;;;5.00;93.40;;;;;;5021359;28;20018;-83
2021/04/16 06:28:43;;;;;;;6.63;2.30;;;5.10;93.10;;;;;;5038878;28;20028;-82
2021/04/16 06:31:12;;;;;;;4.68;2.30;;;5.20;92.70;;;;;;5020875;28;20021;-81
2021/04/16 06:33:40;;;;;;;4.07;2.00;;;5.30;92.10;;;;;;5038891;28;20417;-82
2021/04/16 06:36:13;;;;;;;6.65;3.33;;;5.30;91.50;;;;;;5020869;28;20034;-83
2021/04/16 06:38:43;;;;;;;5.82;2.30;;;5.40;91.10;;;;;;5020984;28;20029;-82
2021/04/16 06:41:31;;;;;;;4.50;2.50;;;5.60;90.60;;;;;;5020792;28;20072;-79
2021/04/16 06:44:16;;;;;;;5.88;2.60;;;5.70;90.80;;;;;;5020774;28;20075;-84
2021/04/16 06:46:46;;;;;;;6.75;2.28;;;5.80;90.40;;;;;;5039494;28;20022;-79
2021/04/16 06:49:26;;;;;;;3.90;2.53;;;5.90;90.40;;;;;;5021439;28;20026;-80
2021/04/16 06:52:04;;;;;;;4.50;2.22;;;6.00;90.50;;;;;;5039211;28;20314;-84
2021/04/16 06:54:44;;;;;;;6.07;2.08;;;6.10;90.20;;;;;;5021422;28;20112;-82
2021/04/16 06:57:40;;;;;;;6.97;2.50;;;6.20;89.90;;;;;;5039391;28;20017;-81
2021/04/16 07:00:30;;;;;;;6.22;2.38;;;6.30;88.40;;;;;;5021470;28;20417;-84
2021/04/16 07:03:24;;;;;;;4.53;2.47;;;6.40;87.30;;;;;;5021530;28;20057;-79
2021/04/16 07:06:08;;;;;;;4.38;2.53;;;6.50;85.60;;;;;;5020408;28;20075;-84
2021/04/16 07:09:04;;;;;;;3.08;1.88;;;6.60;82.40;;;;;;5038268;28;20618;-84
2021/04/16 07:11:37;;;;;;;4.15;2.05;;;6.70;82.00;;;;;;5020144;28;20025;-84
2021/04/16 07:14:10;;;;;;;4.43;2.00;;;6.70;81.60;;;;;;5020457;28;20116;-84
2021/04/16 07:16:38;;;;;;;4.53;2.08;;;6.70;81.70;;;;;;5020216;28;20116;-84
2021/04/16 07:19:27;;;;;;;4.10;2.08;;;6.80;80.10;;;;;;5019995;28;20033;-84
2021/04/16 07:22:05;;;;;;;4.85;2.03;;;6.90;79.00;;;;;;5020097;28;20033;-84
2021/04/16 07:24:34;;;;;;;4.32;2.10;;;6.90;79.30;;;;;;5036627;28;20119;-82
2021/04/16 07:27:19;;;;;;;5.28;2.05;;;7.00;78.90;;;;;;5037328;28;20406;-82
2021/04/16 07:29:56;;;;;;;4.17;2.23;;;7.00;78.80;;;;;;5038615;28;20026;-82
2021/04/16 07:32:39;;;;;;;6.53;3.15;;;7.10;79.50;;;;;;5037610;28;20362;-82
2021/04/16 07:35:23;;;;;;;3.75;2.00;;;7.20;80.00;;;;;;5037125;28;20120;-82
2021/04/16 07:38:14;;;;;;;4.38;2.55;;;7.30;79.50;;;;;;5038754;28;20021;-82
2021/04/16 07:40:45;;;;;;;5.38;2.15;;;7.40;79.30;;;;;;5037146;28;20032;-81
2021/04/16 07:43:40;;;;;;;6.25;2.17;;;7.40;78.90;;;;;;5038028;28;20022;-81
2021/04/16 07:46:28;;;;;;;7.30;2.53;;;7.60;79.00;;;;;;5037489;28;20025;-78
2021/04/16 07:49:23;;;;;;;4.45;2.15;;;7.70;78.50;;;;;;5037239;28;20021;-78
2021/04/16 07:51:56;;;;;;;5.38;2.20;;;7.80;78.40;;;;;;5038188;28;20023;-78
2021/04/16 07:54:30;;;;;;;3.58;1.90;;;8.00;77.80;;;;;;5036977;28;20064;-78
2021/04/16 07:57:21;;;;;;;4.35;2.40;;;8.10;77.70;;;;;;5037772;28;20425;-79
2021/04/16 08:00:01;;;;;;;4.57;2.47;;;8.40;91.10;;;;;;5038537;28;20108;-81
2021/04/16 08:03:08;;;;;;;4.28;2.03;;;8.30;76.50;;;;;;5038476;28;20032;-83
2021/04/16 08:05:53;;;;;;;5.22;1.92;;;8.40;76.10;;;;;;5033852;28;20039;-78
2021/04/16 08:08:30;;;;;;;4.85;1.90;;;8.40;75.50;;;;;;5040115;28;20053;-83
2021/04/16 08:11:04;;;;;;;6.13;2.17;;;;;;;;;;5042307;28;20022;-79
2021/04/16 08:13:36;;;;;;;5.50;2.40;;;8.30;74.40;;;;;;5044484;28;20043;-81
2021/04/16 08:16:22;;;;;;;7.50;2.40;;;8.50;75.20;;;;;;5042100;28;20026;-79
2021/04/16 08:19:20;;;;;;;4.30;2.20;;;8.60;75.20;;;;;;5036700;28;20399;-85
2021/04/16 08:22:12;;;;;;;5.80;2.00;;;8.70;74.50;;;;;;5036541;28;20030;-78
2021/04/16 08:24:48;;;;;;;4.70;1.90;;;8.80;74.80;;;;;;5006308;28;20385;-80
2021/04/16 08:27:39;;;;;;;4.20;1.80;;;8.90;74.40;;;;;;5019472;28;20045;-87
2021/04/16 08:30:12;;;;;;;7.60;2.33;;;8.90;73.90;;;;;;5019212;28;20072;-78
2021/04/16 08:32:54;;;;;;;7.20;2.20;;;9.00;73.80;;;;;;5036822;28;20026;-80
2021/04/16 08:35:38;;;;;;;5.13;1.92;;;9.10;73.90;;;;;;5018861;28;20025;-82
2021/04/16 08:38:17;;;;;;;3.55;1.83;;;9.10;73.40;;;;;;5018984;28;20124;-84
2021/04/16 08:40:49;;;;;;;4.68;2.35;;;9.20;73.10;;;;;;5018832;28;20022;-80
2021/04/16 08:43:26;;;;;;;4.45;1.90;;;9.30;73.20;;;;;;5036660;28;20037;-81
2021/04/16 08:45:56;;;;;;;4.15;2.50;;;9.40;72.90;;;;;;5037402;28;20041;-78
2021/04/16 08:48:35;;;;;;;3.58;1.80;;;9.40;72.60;;;;;;5037354;28;20022;-78
2021/04/16 08:51:11;;;;;;;10.90;2.30;;;9.50;71.80;;;;;;5037240;28;20024;-78
2021/04/16 08:53:44;;;;;;;4.25;2.08;;;9.50;71.10;;;;;;5020021;28;20429;-84
2021/04/16 08:56:25;;;;;;;4.85;2.13;;;9.60;70.90;;;;;;5019637;28;20037;-84
2021/04/16 08:58:53;;;;;;;8.15;2.83;;;9.60;70.80;;;;;;5019730;28;20026;-84
2021/04/16 09:01:29;;;;;;;4.50;1.90;;;9.60;71.10;;;;;;5019716;28;20333;-84
2021/04/16 09:04:15;;;;;;;5.85;1.90;;;9.60;72.00;;;;;;5036622;28;20025;-84
2021/04/16 09:06:47;;;;;;;5.82;2.00;;;9.60;70.70;;;;;;5036270;28;20437;-83
2021/04/16 09:09:36;;;;;;;6.68;2.30;;;9.50;71.20;;;;;;5036221;28;20029;-84
2021/04/16 09:12:03;;;;;;;5.75;2.03;;;9.40;71.90;;;;;;5018715;28;20325;-84
2021/04/16 09:14:35;;;;;;;3.90;1.73;;;9.40;71.50;;;;;;5018813;28;20025;-81
2021/04/16 09:17:10;;;;;;;5.20;2.00;;;9.30;72.00;;;;;;5020650;28;20044;-82
2021/04/16 09:19:56;;;;;;;4.68;1.83;;;9.30;71.80;;;;;;5022569;28;20025;-82
2021/04/16 09:22:34;;;;;;;4.72;1.77;;;9.20;71.70;;;;;;5040032;28;20050;-82
2021/04/16 09:25:04;;;;;;;2.85;1.60;;;9.20;71.20;;;;;;5022916;28;20318;-81
2021/04/16 09:27:44;;;;;;;5.22;2.00;;;9.20;71.00;;;;;;5023321;28;20022;-82
2021/04/16 09:30:13;;;;;;;5.30;2.28;;;9.10;71.40;;;;;;5023293;28;20026;-80
2021/04/16 09:33:26;;;;;;;3.55;2.00;;;9.10;71.40;;;;;;5023099;28;20055;-80
2021/04/16 09:36:29;;;;;;;5.57;2.40;;;9.00;70.20;;;;;;5028364;28;20025;-80
2021/04/16 09:39:15;;;;;;;5.22;1.67;;;9.00;70.40;;;;;;5040783;28;20028;-79
2021/04/16 09:41:47;;;;;;;4.63;2.00;;;9.00;70.80;;;;;;5040828;28;20027;-80
2021/04/16 09:44:30;;;;;;;4.07;1.85;;;9.20;70.10;;;;;;5022549;28;20035;-81
2021/04/16 09:47:05;;;;;;;7.28;2.85;;;9.30;68.70;;;;;;5021901;28;20079;-81
2021/04/16 09:49:56;;;;;;;3.37;1.80;;;9.40;68.90;;;;;;5021861;28;20326;-80
2021/04/16 09:52:39;;;;;;;3.42;1.60;;;9.50;67.80;;;;;;5039394;28;20644;-81
2021/04/16 09:55:43;;;;;;;4.13;1.83;;;9.60;67.40;;;;;;5039712;28;20036;-77
2021/04/16 09:58:32;;;;;;;5.50;2.40;;;9.80;67.50;;;;;;4998166;28;20034;-77
2021/04/16 10:01:07;;;;;;;3.42;1.88;;;9.90;66.90;;;;;;5038250;28;20040;-79
2021/04/16 10:03:34;;;;;;;4.95;2.28;;;10.00;66.80;;;;;;5039070;28;20372;-77
2021/04/16 10:07:01;;;;;;;6.68;2.05;;;10.10;65.80;;;;;;5022191;28;20026;-77
2021/04/16 10:09:26;;;;;;;4.05;1.70;;;10.20;65.80;;;;;;5036078;28;20476;-79
2021/04/16 10:12:14;;;;;;;6.45;2.42;;;10.30;65.10;;;;;;5039862;28;20036;-78
2021/04/16 10:14:43;;;;;;;8.52;2.22;;;10.30;65.10;;;;;;5022338;28;20047;-75
2021/04/16 10:17:19;;;;;;;5.78;1.92;;;10.40;64.00;;;;;;5022336;28;20025;-74
2021/04/16 10:19:49;;;;;;;4.50;1.80;;;10.50;63.80;;;;;;5039848;28;20432;-74
2021/04/16 10:22:21;;;;;;;4.32;2.05;;;10.60;63.60;;;;;;5039622;28;20025;-76
2021/04/16 10:31:55;;;;;;;4.85;1.92;;;10.70;60.90;;;;;;5038769;28;20108;-77
2021/04/16 12:39:05;;;;;;;5.80;2.17;;;13.00;51.20;;;;;;5037243;28;20105;-79
2021/04/16 12:41:42;;;;;;;3.10;1.70;;;13.00;51.20;;;;;;5019869;28;20022;-79
2021/04/16 12:44:31;;;;;;;3.63;1.50;;;13.00;51.20;;;;;;5037243;28;20060;-79
2021/04/16 12:47:04;;;;;;;5.53;1.60;;;13.10;51.80;;;;;;5037709;28;20474;-74
2021/04/16 12:49:31;;;;;;;4.75;2.00;;;13.30;52.10;;;;;;5037496;28;20290;-78
2021/04/16 12:51:59;;;;;;;4.20;1.50;;;13.40;50.90;;;;;;5021632;28;20021;-81
2021/04/16 12:54:27;;;;;;;5.25;1.60;;;13.30;48.90;;;;;;5041248;28;20029;-79
2021/04/16 12:56:55;;;;;;;3.88;1.77;;;13.30;49.80;;;;;;5040914;28;20060;-79
2021/04/16 12:59:24;;;;;;;3.00;1.30;;;13.40;49.60;;;;;;5022800;28;20410;-79
2021/04/16 13:01:53;;;;;;;4.72;1.80;;;13.50;49.70;;;;;;5022781;28;20025;-79
2021/04/16 13:04:25;;;;;;;3.38;1.70;;;13.70;49.30;;;;;;5022534;28;20095;-79
2021/04/16 13:07:00;;;;;;;3.47;1.63;;;14.00;47.40;;;;;;5022770;28;20029;-79
2021/04/16 13:09:28;;;;;;;4.28;1.60;;;14.20;48.30;;;;;;5040197;28;20028;-79
2021/04/16 13:11:56;;;;;;;3.45;1.50;;;14.50;47.20;;;;;;5022613;28;20032;-79
2021/04/16 13:14:24;;;;;;;4.18;2.00;;;14.90;47.20;;;;;;5040366;28;20295;-80
2021/04/16 13:16:52;;;;;;;2.80;1.90;;;15.30;46.20;;;;;;5040821;28;20025;-80
2021/04/16 13:19:24;;;;;;;2.90;1.70;;;16.00;44.80;;;;;;5041024;28;20030;-80
2021/04/16 13:22:03;;;;;;;3.72;1.92;;;16.80;45.20;;;;;;5023249;28;20337;-79
2021/04/16 13:24:32;;;;;;;5.93;1.85;;;17.40;43.10;;;;;;5040740;28;20456;-79
2021/04/16 13:27:02;;;;;;;4.85;1.52;;;18.00;41.90;;;;;;5040896;28;20029;-80
2021/04/16 13:29:32;;;;;;;3.15;1.73;;;18.40;40.90;;;;;;5023661;28;20121;-80
2021/04/16 13:32:01;;;;;;;4.47;1.70;;;18.60;39.70;;;;;;5040984;28;20026;-80
2021/04/16 13:34:29;;;;;;;4.15;1.80;;;18.50;40.00;;;;;;5022976;28;20299;-80
2021/04/16 13:36:56;;;;;;;5.05;1.65;;;18.40;41.50;;;;;;5022312;28;20021;-80
2021/04/16 13:39:24;;;;;;;4.60;1.60;;;18.30;40.70;;;;;;5022041;28;20025;-80
2021/04/16 13:41:52;;;;;;;2.97;1.85;;;18.10;41.40;;;;;;5039553;28;20029;-79
2021/04/16 13:44:19;;;;;;;3.05;1.73;;;17.90;39.80;;;;;;5022116;28;20326;-81
2021/04/16 13:46:48;;;;;;;3.40;1.63;;;17.80;40.30;;;;;;5021951;28;20036;-81
2021/04/16 13:49:22;;;;;;;5.45;1.75;;;17.80;41.20;;;;;;5039267;28;20026;-81
2021/04/16 13:51:51;;;;;;;5.50;1.98;;;18.40;41.20;;;;;;5039527;28;20025;-81
2021/04/16 13:54:21;;;;;;;2.67;1.48;;;19.20;40.40;;;;;;5039524;28;20088;-83
2021/04/16 13:56:50;;;;;;;5.15;2.95;;;19.90;39.50;;;;;;5022025;28;20022;-82
2021/04/16 13:59:18;;;;;;;3.33;1.70;;;20.60;39.40;;;;;;5022635;28;20026;-82
2021/04/16 14:01:46;;;;;;;3.90;1.85;;;21.30;37.90;;;;;;5022793;28;20025;-83
2021/04/16 14:04:23;;;;;;;4.53;2.00;;;21.90;37.40;;;;;;5021356;28;20029;-81
2021/04/16 14:06:51;;;;;;;3.20;1.80;;;22.60;35.90;;;;;;5040009;28;20017;-79
2021/04/16 14:09:23;;;;;;;5.65;1.98;;;23.30;35.40;;;;;;5022315;28;20426;-80
2021/04/16 14:11:53;;;;;;;5.63;1.80;;;23.90;34.20;;;;;;5040062;28;20382;-79
2021/04/16 14:14:28;;;;;;;2.20;1.70;;;24.20;32.60;;;;;;5039811;28;20084;-79
2021/04/16 14:17:10;;;;;;;3.10;1.80;;;24.40;32.70;;;;;;5039895;28;20018;-79
2021/04/16 14:20:03;;;;;;;6.63;1.60;;;24.50;32.70;;;;;;5038930;28;20488;-79
2021/04/16 14:22:39;;;;;;;3.38;1.50;;;24.70;32.30;;;;;;5038924;28;20073;-79
2021/04/16 14:25:21;;;;;;;3.90;1.67;;;24.90;31.60;;;;;;5039331;28;20475;-79
2021/04/16 14:27:48;;;;;;;2.60;1.20;;;25.10;31.20;;;;;;5021241;28;20025;-79
2021/04/16 14:30:23;;;;;;;3.22;1.55;;;24.90;30.90;;;;;;5038701;28;20099;-79
2021/04/16 14:32:56;;;;;;;4.00;1.40;;;24.70;31.00;;;;;;5039355;28;20384;-79
2021/04/16 14:35:29;;;;;;;2.83;1.48;;;24.80;30.80;;;;;;5038483;28;20060;-79
2021/04/16 14:37:58;;;;;;;3.53;1.67;;;24.80;30.90;;;;;;5021316;28;20417;-79
2021/04/16 14:40:26;;;;;;;4.38;1.50;;;24.70;30.30;;;;;;5039049;28;20033;-79
2021/04/16 14:42:54;;;;;;;2.97;1.70;;;24.40;29.50;;;;;;5022310;28;20044;-78
2021/04/16 14:45:33;;;;;;;2.83;1.70;;;23.70;30.40;;;;;;5039677;28;20048;-82
2021/04/16 14:48:02;;;;;;;4.32;1.70;;;23.30;31.30;;;;;;5022152;28;20116;-80
2021/04/16 14:50:30;;;;;;;3.08;1.30;;;23.20;31.70;;;;;;5021979;28;20064;-87
2021/04/16 14:53:08;;;;;;;5.85;1.73;;;23.20;32.50;;;;;;5021759;28;20032;-77
2021/04/16 14:55:37;;;;;;;3.67;1.60;;;23.40;32.30;;;;;;5039270;28;20317;-75
2021/04/16 14:58:08;;;;;;;3.85;1.83;;;23.80;32.10;;;;;;5039414;28;20030;-75
2021/04/16 15:00:36;;;;;;;4.43;1.60;;;24.00;31.60;;;;;;5038325;28;20022;-75
2021/04/16 15:03:08;;;;;;;3.42;1.73;;;24.20;31.60;;;;;;5038450;28;20021;-76
2021/04/16 15:05:37;;;;;;;5.32;1.50;;;24.40;31.10;;;;;;5020552;28;20022;-78
2021/04/16 15:08:19;;;;;;;2.92;1.48;;;24.20;31.20;;;;;;5038579;28;20026;-76
2021/04/16 15:10:51;;;;;;;2.63;1.60;;;24.20;31.60;;;;;;5038073;28;20021;-77
2021/04/16 15:13:27;;;;;;;4.57;2.22;;;24.00;31.60;;;;;;5037927;28;20029;-75
2021/04/16 15:16:00;;;;;;;2.45;1.55;;;24.00;31.60;;;;;;5037985;28;20017;-81
2021/04/16 15:18:33;;;;;;;3.97;2.25;;;24.30;31.40;;;;;;5038242;28;20075;-81
2021/04/16 15:21:08;;;;;;;4.75;2.28;;;24.70;31.50;;;;;;5038305;28;20024;-83
2021/04/16 15:23:36;;;;;;;3.20;1.90;;;25.30;30.50;;;;;;5042191;28;20060;-81
2021/04/16 15:26:08;;;;;;;5.28;1.85;;;25.60;29.80;;;;;;5057934;28;20032;-82
2021/04/16 15:28:47;;;;;;;3.47;2.42;;;25.80;30.00;;;;;;5057746;28;20029;-80
2021/04/16 15:31:21;;;;;;;3.97;1.70;;;26.00;29.60;;;;;;5057673;28;20412;-86
2021/04/16 15:48:21;;;;;;;4.07;1.70;;;23.50;30.90;;;;;;5058138;28;20028;-79
2021/04/16 15:50:53;;;;;;;3.60;1.65;;;24.20;31.00;;;;;;5057453;28;20045;-80